Atwater, MN (56209)

5:59 AM CST on December 11, 2016 (GMT -0600)
Willmar | | Change Station
Active Advisory: Winter Weather Advisory

Elev 1188 ft 45.15 °N, 95.00 °W | Updated 1 minute ago

Snow
Snow
13.5 °F
Feels Like 2 °F
N
9.0
Wind Variable Wind from SE
Gusts 11.0 mph

Today
High -- | Low -- °F
--% Chance of Precip.
Yesterday
High -- | Low -- °F
Precip. -- in
Pressure 29.96 in
Visibility 1.8 miles
Clouds Mostly Cloudy 600 ft
Mostly Cloudy 1100 ft
Overcast 1800 ft
Windchill 2 °F
Dew Point 11 °F
Humidity 91%
Rainfall 0.00 in
Snow Depth Not available.
7:48 AM 4:37 PM
Waxing Gibbous, 91% visible
METAR KLJF 111153Z AUTO 06007KT 1 3/4SM -SN BKN006 BKN011 OVC018 M09/M11 A2996 RMK AO2
Pressure 29.96 in
Visibility 1.8 miles
Clouds Mostly Cloudy 600 ft
Mostly Cloudy 1100 ft
Overcast 1800 ft
Windchill 2 °F
Dew Point 11 °F
Humidity 91%
Rainfall 0.00 in
Snow Depth Not available.
7:48 AM 4:37 PM
Waxing Gibbous, 91% visible
METAR KLJF 111153Z AUTO 06007KT 1 3/4SM -SN BKN006 BKN011 OVC018 M09/M11 A2996 RMK AO2

10-Day Weather Forecast

Almanac

Astronomy

Dec. 11, 2016 Rise Set
Actual Time
Civil Twilight
Nautical Twilight
Astronomical Twilight
Moon
Length of Visible Light
Length of Day
Tomorrow will be .
, % of the Moon is Illuminated

Today's Extremes

State Highs State Lows

Community

WunderPhotos

Upload Photos

1,956,710 photos uploaded!

WunderBlog® & News

Nearby

Air Quality

  Air Quality AQ Index Pollutant
Not available.

Snow Depth

Station Depth Elevation

Earthquake Activity

City Distance Mag. Time & Date
Minimum magnitude displayed is 2.5.

Coastal Water Temperatures

Place Temperature

Stations

Nearby Weather Stations

Station Location Temp. Windchill Dew Point Humidity Wind Precip. Elev Updated Type
                   

Watches & Warnings

Winter Weather Advisory
Issued: 3:56 AM CST Dec. 11, 2016 – National Weather Service

... Winter Weather Advisory now in effect until 9 am CST this
morning...

The Winter Weather Advisory is now in effect until 9 am CST this
morning.

* Expect snow to continue... diminishing around 9 am.

* The heaviest snowfall rates will occur until 6 am this
morning.

* Storm total snow accumulations of 4 to 7 inches are expected.

* Look for reduced visibilities at times.

* Plan on slippery Road conditions.

Precautionary/preparedness actions...

A Winter Weather Advisory for snow means periods of snow will
cause primarily travel difficulties. Be prepared for snow covered
roads and limited visibilities... and use caution while driving.
The latest Road conditions for the state you are calling from can
be obtained by calling 5 1 1.